x

Tanner Bank - 121nm West Of San Diego, Ca (46047) Wave Buoy

1:50pm - Mon 28th Jul 2014 All times are PDT. -7 hours from GMT.

  • Sig Wave height 4.6ft
  • Swell Direction
  • Peak Period 8s
  • Average Period 7s
  • Wind
    4mph, 7mph gusts
  • Sea Temp 67°f
  • Air Temp 67°f
  • Sea Pressure 1018.4mb
  • Tanner Bank - 121nm West Of San Diego, Ca
  • Tanner Bank - 121nm West Of San Diego, Ca

More Historic Weather Station data

Upgrade to MSW Pro to gain access to the past 30 days of data for over 8000 Wavebouys and Weather Stations around the globe.

Join Pro

Comparision Forecast

View Surf forecast
   
Mon 07/28 1:50pm 4.5ft 8s 7s 4 7 mph 1018.4mb 67f 67f
12:50pm 4.5ft 8s 7s 7 9 mph 1018.6mb 67f 67f
11:50am 5ft 14s 7s 7 9 mph 1018.8mb 67f 66f
10:50am 4.5ft 8s 7s 7 9 mph 1018.6mb 67f 66f
9:50am 4.5ft 14s 8s 4 7 mph 1019mb 67f 66f
8:50am 5ft 9s 8s 9 11 mph 1018mb 67f 66f
7:50am 4.5ft 14s 8s 11
mph
1017.6mb 67f 66f
6:50am 4.5ft 8s 8s 7 9 mph 1017.6mb 67f 66f
5:50am 4.5ft 8s 8s 7 9 mph 1017.3mb 67f 66f
4:50am 4.5ft 15s 7s 7 9 mph 1017.2mb 67f 66f
3:50am 4ft 8s 7s 9 11 mph 1016.5mb 67f 66f
2:50am 4.5ft 8s 7s 11
mph
1016.4mb 67f 66f
1:50am 4.5ft 8s 7s 13
mph
1016.4mb 67f 66f
12:50am 4.5ft 8s 7s 11
mph
1016.8mb 67f 66f
Sun 07/27 11:50pm 4.5ft 15s 7s 9 11 mph 1016.6mb 67f 66f
10:50pm 4.5ft 8s 7s 9 11 mph 1016.3mb 67f 66f
9:50pm 4.5ft 8s 6s 4 7 mph 1016.3mb 67f 66f
8:50pm 4.5ft 8s 6s 11 13 mph 1015.1mb 67f 66f
7:50pm 4.5ft 14s 7s 13 16 mph 1014.5mb 67f 66f
6:50pm 4ft 14s 6s 9 11 mph 1015mb 67f 66f
5:50pm 4ft 8s 6s 11 13 mph 1014.6mb 67f 66f
4:50pm 4.5ft 8s 8s 18 22 mph 1013.5mb 67f 66f
3:50pm 4.5ft 8s 8s 11 13 mph 1015mb 67f 66f
2:50pm 5ft 9s 7s 4 7 mph 1016.5mb 67f 65f
1:50pm 5ft 9s 8s 2 4 mph 1017.5mb 67f 65f
12:50pm 5ft 9s 8s 2 4 mph 1017.4mb 67f 65f
11:50am 5ft 9s 8s 9 11 mph 1016.7mb 66f 65f
10:50am 5ft 10s 8s 7 9 mph 1016.6mb 67f 65f
9:50am 5.5ft 9s 8s 7 11 mph 1016.6mb 67f 65f
8:50am 5.5ft 9s 8s 4 9 mph 1016.8mb 67f 65f
7:50am 5ft 9s 8s 7
mph
1016.2mb 67f 64f
6:50am 5ft 9s 8s 4 7 mph 1015.6mb 67f 64f
5:50am 5ft 10s 8s 7 11 mph 1015.1mb 66f 64f
4:50am 5ft 10s 8s 7 11 mph 1014.9mb 66f 64f
3:50am 5.5ft 10s 8s 9 11 mph 1014.9mb 66f 64f
2:50am 5.5ft 10s 8s 7 9 mph 1015.1mb 66f 65f
1:50am 6ft 10s 8s 4 9 mph 1015.5mb 67f 64f
12:50am 5.5ft 10s 8s 4 7 mph 1015.6mb 67f 64f
Sat 07/26 11:50pm 5.5ft 10s 8s 7 9 mph 1015.4mb 66f 65f
10:50pm 5ft 9s 8s 7 9 mph 1015.5mb 67f 65f
9:50pm 5ft 9s 8s 9 11 mph 1015.2mb 66f 65f
8:50pm 5ft 9s 8s 9 11 mph 1014.7mb 67f 65f
7:50pm 5ft 10s 8s 9 11 mph 1014.3mb 67f 65f
6:50pm 4.5ft 10s 8s 11 13 mph 1013.8mb 68f 65f
5:50pm 5ft 10s 8s 11
mph
1013.9mb 68f 65f
4:50pm 5ft 10s 8s 7 9 mph 1014.4mb 68f 65f
3:50pm 6ft 10s 8s 4 7 mph 1014.9mb 68f 65f
2:50pm 6ft 10s 8s 4 7 mph 1015.2mb 68f 64f
1:50pm 6.5ft 10s 8s 4 9 mph 1015.5mb 68f 64f
12:50pm 7ft 10s 8s 4 7 mph 1015.9mb 68f 64f
11:50am 6.5ft 10s 8s 2 4 mph 1016mb 67f 64f
10:50am 7.5ft 10s 8s 4 7 mph 1016mb 67f 64f
9:50am 8ft 10s 8s 4 7 mph 1015.6mb 67f 64f
8:50am 7ft 10s 8s 4 9 mph 1015.5mb 67f 63f
7:50am 6ft 10s 8s 4 7 mph 1015mb 66f 63f
6:50am 6.5ft 10s 8s 7 9 mph 1014.3mb 66f 63f
5:50am 6.5ft 9s 8s 9 11 mph 1013.7mb 66f 63f
4:50am 6ft 10s 8s 4 7 mph 1013.4mb 66f 63f
3:50am 7ft 9s 8s 7 11 mph 1013.5mb 66f 63f
2:50am 6ft 9s 7s 9 11 mph 1013.5mb 66f 63f
1:50am 7ft 9s 8s 11 16 mph 1013.1mb 66f 63f
12:50am 7ft 10s 7s 11 16 mph 1013.6mb 66f 63f
Fri 07/25 11:50pm 6.5ft 10s 7s 11 13 mph 1013.7mb 66f 63f
10:50pm 7ft 10s 7s 11 16 mph 1013.8mb 66f 64f
9:50pm 6.5ft 8s 7s 11 13 mph 1013.7mb 66f 64f
8:50pm 6.5ft 9s 7s 13
mph
1013mb 66f 64f
7:50pm 6.5ft 10s 7s 11 16 mph 1012.5mb 67f 64f
6:50pm 6ft 9s 7s 11 16 mph 1012.4mb 67f 64f
5:50pm 6ft 9s 7s 11 13 mph 1012.4mb 67f 64f
4:50pm 7ft 8s 7s 11 13 mph 1012.7mb 67f 64f
3:50pm 7.5ft 9s 7s 16 20 mph 1012.8mb 67f 64f
2:50pm 8ft 9s 7s 13 18 mph 1013.4mb 67f 64f
1:50pm 8ft 9s 7s 13 18 mph 1013.7mb 67f 64f
12:50pm 7.5ft 9s 7s 13 16 mph 1013.8mb 67f 64f
11:50am 8.5ft 9s 7s 13 18 mph 1013.5mb 67f 64f
10:50am 7.5ft 9s 7s 13 18 mph 1013.2mb 66f 64f
9:50am 8.5ft 9s 7s 11 16 mph 1013.2mb 66f 64f
8:50am 7ft 9s 6s 11 16 mph 1013.1mb 66f 64f
7:50am 7ft 9s 6s 13 18 mph 1012.4mb 66f 64f
6:50am 7ft 8s 6s 20 22 mph 1011.6mb 66f 64f
5:50am 7.5ft 9s 6s 16 20 mph 1011.7mb 66f 64f
4:50am 8ft 9s 6s 16 20 mph 1011.5mb 66f 64f
3:50am 8ft 9s 6s 18 20 mph 1011.2mb 66f 64f
2:50am 9ft 8s 7s 20 22 mph 1011.2mb 66f 64f
1:50am 8.5ft 8s 6s 18 22 mph 1011.5mb 66f 65f
12:50am 8.5ft 9s 6s 18 22 mph 1011.5mb 66f 65f
Thu 07/24 11:50pm  -   -   -  20 25 mph 1011.2mb 66f 65f
10:50pm 8ft 8s 6s 22 27 mph 1010.7mb 66f 65f
9:50pm  -   -   -  22 27 mph 1010.4mb 66f 66f